• Join FlightAware (Why Join?)
  • Login
  • US Flag 
09:53AM EDT


 

Airport Tracker/Info


-or-


 

Live Flight TrackerFlight Track Log ✈ AWI3970 ✈ 09-Feb-2014 ✈ KPHL - KHPN

Flight Track Log - Related Links

Times and Time Zones

All times are in EST time to prevent confusion due to time zone crossing. See the AWI3970 flight status page for this flight to view local times or setup timezone preferences in your user account.

Time Position Orientation Groundspeed Altitude Reporting Facility
EST Latitude Longitude Course Direction KTS MPH feet Rate Location/Type
12:28PM 39.8667 -75.2667 38° Northeast 169 194 800  Level Philadelphia TRACON
12:30PM 39.7833 -75.3500 218° Southwest 192 221 7,800 3,180 Climbing Philadelphia TRACON
12:31PM 39.8110 -74.8381 105° East  Level FlightAware Approximate
12:31PM 39.7167 -75.3333 169° South 234 269 10,400  Level Philadelphia TRACON
12:32PM 39.7843 -74.7047 105° East  Level FlightAware Approximate
12:33PM 39.8000 -74.5699 90° East  Level FlightAware Approximate
12:34PM 39.8109 -74.4391 38° Northeast  Level FlightAware Approximate
12:34PM 39.7342 -75.0786 85° East 365 420 12,000  Level Boston Center
12:35PM 39.7564 -74.9419 78° East 390 449 12,000 240 Level Boston Center
12:36PM 39.7842 -74.7803 77° East 393 452 12,500 1,500 Climbing Boston Center
12:37PM 39.8014 -74.6400 81° East 395 455 15,100 2,160 Climbing Boston Center
12:38PM 39.8119 -74.4933 85° East 406 467 16,900 840 Climbing Boston Center
12:39PM 39.8592 -74.3564 66° East 423 487 16,900  Level Boston Center
12:40PM 39.9281 -74.2347 54° Northeast 421 484 16,900  Level Boston Center
12:41PM 39.9989 -74.1119 53° Northeast 424 488 16,900  Level Boston Center
12:42PM 40.0689 -73.9864 54° Northeast 428 493 16,900  Level Boston Center
12:43PM 40.1644 -73.8222 53° Northeast 414 476 17,000  Climbing New York Center
12:44PM 40.2311 -73.7033 54° Northeast 401 461 17,000  Level New York Center
12:45PM 40.2947 -73.5889 54° Northeast 393 452 17,000  Level New York Center
12:46PM 40.3636 -73.4692 53° Northeast 386 444 17,000  Level New York Center
12:47PM 40.4561 -73.4269 19° North 357 411 17,000 -120 Level New York Center
12:48PM 40.5567 -73.3903 15° North 351 404 16,800 -720 Descending New York Center
12:49PM 40.6500 -73.3500 18° North 363 418 15,600 -840 Descending New York TRACON
12:50PM 40.7500 -73.3167 14° North 336 387 15,100 -480 Descending New York TRACON
12:51PM 40.8167 -73.2500 37° Northeast 359 413 14,700 -1,440 Descending New York TRACON
12:53PM 40.9269 -73.0303 56° Northeast 336 387 10,700 -1,860 Descending New York Center
12:54PM 40.9983 -72.9764 30° Northeast 290 334 8,900 -1,740 Descending New York Center
12:55PM 41.0333 -73.0333 309° West 249 287 7,500 -1,500 Descending New York TRACON
12:56PM 41.0500 -73.1000 288° West 253 291 6,300 -1,200 Descending New York TRACON
12:58PM 41.1000 -73.2667 292° West 233 268 4,100 -1,020 Descending New York TRACON
12:59PM 41.1000 -73.3500 270° West 215 247 3,200 -600 Descending New York TRACON
01:00PM 41.0667 -73.4000 229° Southwest 205 236 3,000 -600 Descending New York TRACON
01:01PM 41.0333 -73.4667 236° Southwest 205 236 2,100 -540 Descending New York TRACON
01:02PM 41.0167 -73.5333 252° West 206 237 2,000  Descending New York TRACON
01:03PM 40.9833 -73.6000 236° Southwest 201 231 2,100 -240 Climbing New York TRACON
01:05PM 41.0333 -73.6833 309° West 140 161 1,300 -420 Descending New York TRACON